Logo AVAMET
Benvolgut visitant, si us plau, ingressa Recuperar contrasenya
AVAMET paisatges

Bolulla

Dades diàries. Acumulats / Últims 30 dies disponibles

Data Temperatura (°C) Humitat rel. (%) Pressió rel. (hPa) Vent (km/h) Precipitació
Mínima Mitjana Màxima Amplitud
tèrmica
Mínima Mitjana Màxima Mínima Mitjana Màxima Predom. Mitjana Ràfega
màxima
Total
(mm)
Índex-n
Mínima Mitjana Màxima Mínima Mitjana Màxima n
0 a 1
P0 max
mm 5'
Dades mensuals acumulades fins l'últim dia disponible
08/2020 19,9 21,8 24,2 26,0 27,4 30,9 34,4 14,5 25 66 95 1.009 1.013 1.018   7,3 41,3 4,2
Dades anuals acumulades fins l'últim dia disponible
2020 3,8 13,7 25,0 17,7 9,7 22,2 35,9 32,1 23 69 97 0 942 1.032   7,8 78,1 726,3
Últims 30 dies disponibles
10-08-2020 22,7     26,6     32,3 9,6 35 50 72 1.011 1.011 1.013 OSO 7,7 24,1 0,0
09-08-2020 22,3     26,9     32,9 10,6 25 50 68 1.012 1.014 1.016 OSO 7,7 22,2 0,0
08-08-2020 21,2     26,6     31,3 10,1 36 51 72 1.016 1.017 1.018 OSO 7,4 22,6 0,0
07-08-2020 19,9     25,0     30,2 10,3 32 54 72 1.016 1.016 1.018 OSO 8,4 26,3 0,0
06-08-2020 20,3     24,8     29,6 9,3 34 69 90 1.013 1.014 1.016 OSO 7,4 29,6 0,0
05-08-2020 20,9     24,8     27,9 7,0 69 80 91 1.011 1.012 1.013 SSE 6,6 27,8 0,0
04-08-2020 22,3     24,7     27,4 5,1 67 84 95 1.011 1.012 1.013 S 6,2 27,8 0,0
03-08-2020 24,2     25,5     28,7 4,5 69 82 91 1.009 1.010 1.012 SSE 5,6 28,7 4,2
02-08-2020 22,2     27,5     34,4 12,2 49 67 87 1.010 1.011 1.013 SSO 8,9 41,3 0,0
01-08-2020 22,1     28,0     33,8 11,7 40 70 89 1.010 1.013 1.014 SO 6,6 24,1 0,0
31-07-2020 23,7     28,5     32,6 8,9 46 61 84 1.012 1.013 1.014 SSO 7,1 25,9 0,0
30-07-2020 24,1     30,0     35,9 11,8 44 52 65 1.011 1.013 1.014 SE 6,8 28,1 0,0
29-07-2020 24,3     28,5     32,5 8,2 46 56 72 1.011 1.012 1.014 SE 10,1 42,6 0,0
28-07-2020 25,0     29,7     35,9 10,9 31 44 60 1.011 1.012 1.014 SO 8,9 27,8 0,0
27-07-2020 21,9     27,6     34,7 12,8 28 46 67 1.013 1.014 1.015 OSO 7,9 25,9 0,0
26-07-2020 20,4     25,9     31,2 10,8 47 65 79 1.012 1.013 1.015 SO 7,7 22,6 0,0
25-07-2020 21,1     25,4     30,2 9,1 40 61 84 1.011 1.013 1.014 OSO 7,4 25,9 0,0
24-07-2020 20,7     25,4     29,9 9,2 45 61 81 1.011 1.012 1.013 SO 7,6 27,8 0,0
23-07-2020 21,8     26,1     31,4 9,6 34 52 66 1.012 1.014 1.015 SSO 8,3 27,8 0,0
22-07-2020 23,1     26,5     30,3 7,2 44 59 73 1.014 1.015 1.017 SE 9,5 34,2 0,0
21-07-2020 20,4     26,3     32,5 12,1 36 52 73 1.015 1.016 1.017 SSO 9,6 30,5 0,0
20-07-2020 20,4     24,1     28,0 7,6 64 78 89 1.013 1.014 1.016 SO 7,3 24,1 0,0
19-07-2020 19,6     24,2     29,4 9,8 46 73 92 1.013 1.014 1.015 SO 8,8 35,2 0,0
18-07-2020 19,3     23,6     27,7 8,4 58 76 91 1.013 1.014 1.015 SSO 7,6 27,8 0,0
17-07-2020 19,3     22,9     27,1 7,8 65 77 90 1.013 1.015 1.016 SO 8,1 27,8 0,0
16-07-2020 18,8     23,2     27,7 8,9 51 69 87 1.015 1.016 1.018 OSO 8,5 27,8 0,0
15-07-2020 18,0     23,1     27,7 9,7 48 69 90 1.013 1.015 1.016 OSO 8,0 25,9 0,0
14-07-2020 20,8     24,0     27,8 7,0 54 67 93 1.012 1.014 1.016 SSO 6,8 24,4 7,1
13-07-2020 20,6     25,8     30,4 9,8 48 61 82 1.014 1.015 1.017 S 9,8 38,9 0,0
12-07-2020 20,9     24,4     30,1 9,2 49 71 84 1.015 1.016 1.018 SSO 7,7 27,8 1,7 0,26 0,90
Últims 13 mesos disponibles
07/2020 18,0 21,0 25,0 25,5 25,8 30,3 35,9 17,9 44 64 85 1.010 1.014 1.019 OSO 7,9 42,6 10,0
06/2020 13,5 17,0 20,1 21,7 19,5 26,5 32,1 18,6 48 70 87 1.003 1.013 1.019 OSO 7,9 59,2 93,1
05/2020 12,3 15,4 18,9 20,2 19,0 24,9 29,7 17,4 49 63 84 1.004 1.015 1.024 OSO 8,1 51,8 44,9
04/2020 7,8 11,5 15,7 14,8 14,4 18,8 25,6 17,8 49 74 90 1.004 1.014 1.024 O 7,4 66,6 45,6
03/2020 6,3 10,4 14,6 13,7 9,7 17,3 24,1 17,8 47 70 91 1.004 1.015 1.023 O 8,6 74,7 86,7
02/2020 5,9 9,7 15,9 13,8 13,8 18,7 26,3 20,4 38 70 95 1.013 1.023 1.031 O 7,2 50,3 2,3
01/2020 3,8 7,4 14,5 10,7 13,0 15,1 21,2 17,4 59 77 88 0 500 1.027 O 7,3 78,1 439,5
12/2019 5,8 10,1 15,6 13,2 12,2 17,1 22,7 16,9 48 73 89 0 0 O 8,0 76,6 171,6
11/2019 5,2 10,7 17,7 14,2 13,4 18,2 25,9 20,7 43 62 88 969 981 987 O 9,9 81,4 19,0
10/2019 9,4 14,7 17,6 18,6 15,8 23,1 27,9 18,5 47 73 87 973 982 987 O 7,6 70,3 59,3
09/2019 13,7 18,8 22,8 22,2 21,4 26,5 30,6 16,9 61 78 89 968 981 987 OSO 7,4 59,9 212,8
07/2019 19,4 21,6 26,4 26,2 25,0 31,2 38,4 19,0 37 60 80 966 982 987 OSO 8,0 46,3 0,2
06/2019 13,6 17,0 23,4 22,3 22,2 27,7 36,3 22,7 39 58 79 973 982 987 OSO 8,3 42,6 0,5
Tots els anys disponibles
2018 2,8 13,6 27,2 17,3 7,4 21,5 35,3 32,5 41 69 90 984 1.013 1.032 OSO 8,0 85,1 705,8
2017 3,8 14,1 26,7 18,4 8,4 22,9 34,6 30,8 41 68 89 998 1.017 1.033 OSO 2,6 96,0 223,0
2016
Temperatura (°C)
Humitat relativa (%)
Velocitat del vent i ràfega màxima (km/h)
Direcció del vent (°)
Pressió (hPa)
Precipitació (mm)
Nota sobre les dades: s'avisa a l'usuari de la provisionalitat i no oficialitat d'aquestes dades
Logo AVAMET blanc
Web allotjada a Sollutia
Llicència de Creative CommonsLa web d'AVAMET i els seus continguts estan subjectes a una llicència de
Reconeixement - No Comercial - Compartir igual
Últimes estacions: Fanzara (Soci), Cirat (Estació pròpia d'AVAMET), Torremocha del Jiloca (Limítrofe/Soci), Orihuela - Arneva (MeteOrihuela), Enguera - Antolí (Soci), Vilamarxant - La Pedrera (Soci), Càlig (Ajuntament Soci) - - -